Amargosa Valley, Nevada Weather observations

Data are for observation ending at time listed.
 Day   Time    Ave.   Ave.  Ave.  Vector   Max.   Stn.    Total    Solar   Ave.  
  of    of     Air    Rel.  Wind   Wind    Wind   Baro.  Precip.   Rad.    Soil  
Year   Day     Temp.  Hum.  Speed  Dir.    Gust   Pres.                    Temp. 
2017   (PST)    F      %     mph   deg.    mph     mb.     in.     W/m2     F   
------------------------------------------------------------------------------
  35   21:10   45.4    69    0.5    20      1.9   931.0    0.00       0    57.7
  35   21:20   44.9    71    0.7    30      3.6   931.1    0.00       0    57.6
  35   21:30   45.1    70    0.9    30      3.2   931.1    0.00       0    57.5
  35   21:40   45.1    70    1.1    28      4.2   931.1    0.00       0    57.4
  35   21:50   45.4    69    0.6    23      2.9   931.2    0.00       0    57.3
  35   22:00   45.3    70    0.4    18      2.9   931.4    0.00       0    57.2
  35   22:10   44.7    71    0.8   329      2.4   931.5    0.00       0    57.1
  35   22:20   44.2    73    0.3   330      1.7   931.4    0.00       0    57.0
  35   22:30   43.7    75    0.7   328      2.0   931.4    0.00       0    56.9
  35   22:40   43.9    75    1.4   317      2.7   931.6    0.00       0    56.8
  35   22:50   44.1    75    1.1   317      2.8   931.6    0.00       0    56.7
  35   23:00   44.7    73    0.9   325      2.1   931.6    0.00       0    56.6
  35   23:10   44.9    73    0.8   322      2.4   931.7    0.00       0    56.5
  35   23:20   44.2    75    0.2   320      1.2   931.7    0.00       0    56.4
  35   23:30   44.1    75    0.3   326      1.5   931.5    0.00       0    56.3
  35   23:40   44.5    74    0.6   323      2.1   931.3    0.00       0    56.2
  35   23:50   44.4    74    0.3   323      2.1   931.2    0.00       0    56.1
  36    0:00   43.8    74    0.2   322      1.2   931.2    0.00       0    56.0
  36    0:10   43.3    76    0.6   321      2.2   931.1    0.00       0    56.0
  36    0:20   43.1    76    2.6   314      4.7   931.2    0.00       0    55.9
  36    0:30   43.8    74    1.1   318      3.9   931.3    0.00       0    55.8
  36    0:40   43.6    74    0.6   318      1.8   931.4    0.00       0    55.7
  36    0:50   42.8    76    0.6   320      1.5   931.4    0.00       0    55.6
  36    1:00   42.7    76    1.1   321      2.6   931.4    0.00       0    55.5
  36    1:10   43.1    76    1.3   318      3.7   931.4    0.00       0    55.4
  36    1:20   42.8    77    0.2   320      1.6   931.3    0.00       0    55.3
  36    1:30   41.9    78    0.1   326      0.5   931.3    0.00       0    55.2
  36    1:40   41.5    79    0.0   313      0.4   931.3    0.00       0    55.1
  36    1:50   40.8    80    0.1   324      0.9   931.2    0.00       0    55.0
  36    2:00   40.8    80    0.1   327      0.9   931.1    0.00       0    54.9
  36    2:10   41.1    79    0.2   318      0.9   930.9    0.00       0    54.8
  36    2:20   40.8    79    0.2   330      1.7   930.8    0.00       0    54.8
  36    2:30   41.4    78    1.5    25      5.1   930.7    0.00       0    54.7
  36    2:40   42.1    76    0.2    24      2.3   930.7    0.00       0    54.6
  36    2:50   41.3    77    0.3   348      1.5   930.8    0.00       0    54.5
  36    3:00   40.2    80    0.8   326      2.9   930.7    0.00       0    54.4
  36    3:10   39.8    81    0.3   323      2.2   930.6    0.00       0    54.3
  36    3:20   39.8    81    0.2   323      1.2   930.5    0.00       0    54.2
  36    3:30   39.6    81    0.4   323      1.8   930.4    0.00       0    54.1
  36    3:40   39.6    81    0.7   322      2.8   930.4    0.00       0    54.0
  36    3:50   40.0    81    0.8   317      2.5   930.4    0.00       0    53.9
  36    4:00   40.0    82    0.4   317      1.5   930.4    0.00       0    53.9
  36    4:10   39.5    83    0.0   331      0.8   930.2    0.00       0    53.8
  36    4:20   39.4    83    0.1   326      1.5   930.1    0.00       0    53.7
  36    4:30   39.9    81    0.3   318      1.2   930.1    0.00       0    53.6
  36    4:40   40.0    80    0.4   320      1.5   930.1    0.00       0    53.5
  36    4:50   40.2    79    0.6   322      1.8   930.1    0.00       0    53.4
  36    5:00   40.3    78    1.0   318      3.2   930.1    0.00       0    53.3
  36    5:10   40.2    78    0.9   316      2.5   930.2    0.00       0    53.3
  36    5:20   39.8    79    0.7   317      2.9   930.3    0.00       0    53.2
  36    5:30   40.0    79    0.6   316      1.8   930.5    0.00       0    53.1
  36    5:40   40.2    78    0.4   314      1.5   930.5    0.00       0    53.0
  36    5:50   39.5    79    0.0   321      1.1   930.4    0.00       0    52.9
  36    6:00   38.9    81    0.0   323      0.7   930.4    0.00       0    52.8
  36    6:10   38.4    82    0.2   320      1.7   930.4    0.00       0    52.8
  36    6:20   38.3    84    0.2   322      1.4   930.5    0.00       0    52.7
  36    6:30   38.3    84    0.1   326      1.3   930.6    0.00       0    52.6
  36    6:40   38.3    84    0.1   326      1.4   930.7    0.00       2    52.5
  36    6:50   37.9    85    0.0     0      0.0   930.7    0.00       7    52.4
  36    7:00   37.8    86    0.4    32      2.1   930.6    0.00      21    52.4
  36    7:10   39.3    85    3.7    80      5.8   930.6    0.00      47    52.3
  36    7:20   41.0    82    0.4    83      2.6   930.9    0.00      85    52.2
  36    7:30   41.4    81    0.0    78      0.6   931.0    0.00      68    52.1
  36    7:40   41.8    81    0.0    71      0.4   931.2    0.00      77    52.0
  36    7:50   42.3    81    0.0    72      0.3   931.3    0.00     160    51.9
  36    8:00   44.3    76    0.2    51      1.8   931.3    0.00     204    51.9
  36    8:10   45.6    73    0.6    32      2.0   931.4    0.00     227    51.8
  36    8:20   47.8    68    0.1    29      1.5   931.4    0.00     272    51.7
  36    8:30   49.2    64    0.3    24      3.0   931.6    0.00     263    51.7
  36    8:40   49.4    63    0.7    26      2.2   931.7    0.00     249    51.6
  36    8:50   50.4    61    0.4    37      1.9   931.9    0.00     301    51.6
  36    9:00   51.4    59    0.1    31      1.1   931.9    0.00     344    51.5
  36    9:10   51.9    58    0.7   239      2.9   932.0    0.00     146    51.5
  36    9:20   52.2    58    0.4   233      2.1   932.0    0.00     361    51.5
  36    9:30   52.7    58    0.7   297      2.6   931.9    0.00     388    51.5
  36    9:40   53.2    56    0.3   222      2.5   931.9    0.00     423    51.5
  36    9:50   53.7    55    1.4   215      2.9   931.9    0.00     403    51.5
  36   10:00   53.8    54    0.6   240      2.6   931.9    0.00     492    51.5
  36   10:10   55.7    51    0.6   236      2.4   931.7    0.00     527    51.6
  36   10:20   55.3    52    0.6   129      3.4   931.7    0.00     538    51.6
  36   10:30   56.2    50    1.7   167      4.4   931.7    0.00     553    51.7
  36   10:40   56.4    49    2.0   188      4.6   931.6    0.00     490    51.7
  36   10:50   56.3    50    3.4   194      6.1   931.6    0.00     534    51.9
  36   11:00   56.6    49    3.2   194      6.2   931.4    0.00     501    52.0
  36   11:10   56.8    48    3.5   192      6.2   931.2    0.00     464    52.1
  36   11:20   57.3    47    2.7   185      5.8   931.0    0.00     476    52.3
  36   11:30   58.2    45    1.5   136      4.9   930.7    0.00     480    52.4
  36   11:40   58.3    45    2.9   178      5.0   930.3    0.00     406    52.6
  36   11:50   58.6    43    3.5   144      6.3   930.1    0.00     438    52.7
  36   12:00   58.5    43    4.3    98      7.2   929.7    0.00     401    52.9
  36   12:10   58.8    43    5.1   107      8.7   929.2    0.00     385    53.0
  36   12:20   58.8    42    4.6   123      8.1   928.7    0.00     292    53.2
  36   12:30   59.1    41    3.3   152      5.9   928.4    0.00     264    53.3
  36   12:40   59.5    41    5.3   155      9.6   928.2    0.00     280    53.4
  36   12:50   59.3    41    4.1   160      6.9   928.0    0.00     281    53.5
  36   13:00   60.0    40    5.8   172      9.7   927.8    0.00     463    53.7
  36   13:10   60.1    40    6.6   171      9.9   927.7    0.00     314    53.9
  36   13:20   60.1    40    4.6   178      8.3   927.6    0.00     482    54.0
  36   13:30   60.2    40    4.9   161      8.6   927.6    0.00     275    54.1
  36   13:40   60.3    40    5.0   166      8.3   927.5    0.00     321    54.3
  36   13:50   60.0    40    6.5   162     10.2   927.5    0.00     262    54.4
  36   14:00   60.3    40    5.7   156      8.8   927.5    0.00     284    54.6
  36   14:10   60.2    40    6.1   185      8.6   927.4    0.00     222    54.7
  36   14:20   60.4    40    5.0   152      8.0   927.3    0.00     206    54.8
  36   14:30   60.5    40    4.6   156      6.8   927.3    0.00     235    54.9
  36   14:40   60.7    40    6.0   156     12.8   927.2    0.00     170    55.0
  36   14:50   60.7    40    4.8   136      7.9   927.0    0.00     148    55.2
  36   15:00   61.0    39    5.5   141      8.6   926.8    0.00     135    55.3
  36   15:10   61.4    38    8.5   154     13.4   926.8    0.00     170    55.4
  36   15:20   61.4    38    8.4   161     13.5   926.8    0.00     172    55.5
  36   15:30   61.5    37    8.1   154     11.8   926.8    0.00     135    55.6
  36   15:40   61.5    37    8.0   160     13.4   926.8    0.00      90    55.7
  36   15:50   61.4    38   11.6   172     16.7   926.8    0.00      90    55.8
  36   16:00   61.3    38   12.8   166     17.5   926.7    0.00      87    55.9
  36   16:10   61.1    38   11.2   165     15.1   926.7    0.00      60    56.0
  36   16:20   60.7    40   10.1   160     14.1   926.7    0.00      39    56.0
  36   16:30   60.2    41    9.0   150     13.4   926.7    0.00      27    56.1
  36   16:40   59.8    41    9.2   152     13.2   926.6    0.00      23    56.1
  36   16:50   59.5    41   10.1   150     13.3   926.5    0.00      18    56.2
  36   17:00   59.2    41    9.5   145     15.0   926.3    0.00      10    56.2
  36   17:10   58.7    42    8.1   144     12.0   926.2    0.00       3    56.3
  36   17:20   58.4    44    8.4   145     12.4   926.2    0.00       3    56.3
  36   17:30   58.1    44    8.1   135     11.8   926.1    0.00       1    56.3
  36   17:40   57.5    46    7.1   134     10.4   926.0    0.00       0    56.4
  36   17:50   57.0    47    6.9   143     10.4   926.0    0.00       0    56.4
  36   18:00   56.8    47    8.1   148     11.9   926.0    0.00       0    56.4
  36   18:10   56.7    46    9.1   160     13.4   926.0    0.00       0    56.4
  36   18:20   56.6    46    7.8   154     11.8   926.1    0.00       1    56.4
  36   18:30   56.6    46    9.2   151     15.0   926.0    0.00       1    56.4
  36   18:40   56.4    46   10.6   154     15.0   925.9    0.00       1    56.4
  36   18:50   56.2    47   10.0   157     14.4   925.8    0.00       1    56.4
  36   19:00   56.0    48    7.9   141     12.4   925.7    0.00       1    56.4
  36   19:10   55.7    49    6.9   126     10.0   925.7    0.00       1    56.4
  36   19:20   55.4    49    7.4   141     11.0   925.7    0.00       1    56.3
  36   19:30   55.4    49    9.5   150     15.5   925.7    0.00       1    56.3
  36   19:40   55.0    50    6.9   148     11.3   925.6    0.00       0    56.3
  36   19:50   54.0    52    7.2   157     12.3   925.6    0.00       0    56.3
  36   20:00   53.9    52    7.7   149     10.7   925.5    0.00       0    56.2
  36   20:10   52.7    54    6.0   129      9.2   925.4    0.00       0    56.2
  36   20:20   52.6    55    6.2   146      9.7   925.4    0.00       0    56.2
  36   20:30   52.6    55    7.5   162     12.1   925.2    0.00       0    56.2
  36   20:40   52.2    56    6.4   158      8.6   925.0    0.00       0    56.1
  36   20:50   52.0    56    7.2   158     10.2   925.0    0.00       0    56.1
  36   21:00   52.3    55    7.3   153     10.7   924.9    0.00       0    56.0

Return to Amargosa Valley, Nevada graphs page.


Western Regional Climate Center,wrcc@dri.edu